sensor_id;sensor_type;location;lat;lon;timestamp;P1;durP1;ratioP1;P2;durP2;ratioP2
21095;SDS011;10706;49.036;12.112;2023-02-15T00:01:55;35.40;;;9.77;;
21095;SDS011;10706;49.036;12.112;2023-02-15T00:04:22;35.57;;;10.07;;
21095;SDS011;10706;49.036;12.112;2023-02-15T00:06:49;29.53;;;8.73;;
21095;SDS011;10706;49.036;12.112;2023-02-15T00:09:15;40.90;;;10.00;;
21095;SDS011;10706;49.036;12.112;2023-02-15T00:11:41;36.47;;;9.20;;
21095;SDS011;10706;49.036;12.112;2023-02-15T00:14:16;32.13;;;10.80;;
21095;SDS011;10706;49.036;12.112;2023-02-15T00:16:45;36.17;;;11.17;;
21095;SDS011;10706;49.036;12.112;2023-02-15T00:19:13;46.90;;;10.47;;
21095;SDS011;10706;49.036;12.112;2023-02-15T00:21:41;27.80;;;9.40;;
21095;SDS011;10706;49.036;12.112;2023-02-15T00:24:11;42.57;;;9.37;;
21095;SDS011;10706;49.036;12.112;2023-02-15T00:26:39;32.60;;;9.33;;
21095;SDS011;10706;49.036;12.112;2023-02-15T00:29:07;30.40;;;9.27;;
21095;SDS011;10706;49.036;12.112;2023-02-15T00:31:34;37.47;;;9.97;;
21095;SDS011;10706;49.036;12.112;2023-02-15T00:34:07;41.23;;;11.33;;
21095;SDS011;10706;49.036;12.112;2023-02-15T00:36:38;36.03;;;9.70;;
21095;SDS011;10706;49.036;12.112;2023-02-15T00:39:04;60.10;;;11.60;;
21095;SDS011;10706;49.036;12.112;2023-02-15T00:41:31;49.00;;;10.73;;
21095;SDS011;10706;49.036;12.112;2023-02-15T00:43:57;45.97;;;9.97;;
21095;SDS011;10706;49.036;12.112;2023-02-15T00:46:23;32.70;;;8.60;;
21095;SDS011;10706;49.036;12.112;2023-02-15T00:48:49;36.50;;;9.17;;
21095;SDS011;10706;49.036;12.112;2023-02-15T00:51:15;33.93;;;9.67;;
21095;SDS011;10706;49.036;12.112;2023-02-15T00:53:42;32.10;;;9.10;;
21095;SDS011;10706;49.036;12.112;2023-02-15T00:56:09;39.10;;;9.03;;
21095;SDS011;10706;49.036;12.112;2023-02-15T00:58:35;36.10;;;10.57;;
21095;SDS011;10706;49.036;12.112;2023-02-15T01:01:09;40.33;;;10.57;;
21095;SDS011;10706;49.036;12.112;2023-02-15T01:03:40;35.20;;;10.27;;
21095;SDS011;10706;49.036;12.112;2023-02-15T01:06:06;39.53;;;11.33;;
21095;SDS011;10706;49.036;12.112;2023-02-15T01:08:32;38.23;;;10.80;;
21095;SDS011;10706;49.036;12.112;2023-02-15T01:11:11;39.57;;;9.47;;
21095;SDS011;10706;49.036;12.112;2023-02-15T01:13:46;32.30;;;9.53;;
21095;SDS011;10706;49.036;12.112;2023-02-15T01:16:17;37.60;;;10.47;;
21095;SDS011;10706;49.036;12.112;2023-02-15T01:18:43;44.30;;;10.67;;
21095;SDS011;10706;49.036;12.112;2023-02-15T01:21:13;43.13;;;10.17;;
21095;SDS011;10706;49.036;12.112;2023-02-15T01:23:42;52.20;;;10.20;;
21095;SDS011;10706;49.036;12.112;2023-02-15T01:26:09;39.00;;;9.87;;
21095;SDS011;10706;49.036;12.112;2023-02-15T01:28:35;31.67;;;9.87;;
21095;SDS011;10706;49.036;12.112;2023-02-15T01:31:08;37.27;;;9.57;;
21095;SDS011;10706;49.036;12.112;2023-02-15T01:33:38;38.77;;;9.87;;
21095;SDS011;10706;49.036;12.112;2023-02-15T01:36:04;41.73;;;9.70;;
21095;SDS011;10706;49.036;12.112;2023-02-15T01:38:30;33.90;;;9.43;;
21095;SDS011;10706;49.036;12.112;2023-02-15T01:40:56;32.47;;;9.33;;
21095;SDS011;10706;49.036;12.112;2023-02-15T01:43:42;33.23;;;8.97;;
21095;SDS011;10706;49.036;12.112;2023-02-15T01:46:14;40.93;;;10.27;;
21095;SDS011;10706;49.036;12.112;2023-02-15T01:48:50;38.83;;;10.07;;
21095;SDS011;10706;49.036;12.112;2023-02-15T01:51:26;43.40;;;10.13;;
21095;SDS011;10706;49.036;12.112;2023-02-15T01:54:02;31.17;;;8.73;;
21095;SDS011;10706;49.036;12.112;2023-02-15T01:56:40;36.90;;;8.80;;
21095;SDS011;10706;49.036;12.112;2023-02-15T01:59:08;42.60;;;9.63;;
21095;SDS011;10706;49.036;12.112;2023-02-15T02:01:39;39.90;;;9.37;;
21095;SDS011;10706;49.036;12.112;2023-02-15T02:04:13;40.00;;;9.20;;
21095;SDS011;10706;49.036;12.112;2023-02-15T02:06:57;30.07;;;9.50;;
21095;SDS011;10706;49.036;12.112;2023-02-15T02:09:25;37.27;;;9.20;;
21095;SDS011;10706;49.036;12.112;2023-02-15T02:11:51;30.80;;;9.63;;
21095;SDS011;10706;49.036;12.112;2023-02-15T02:14:19;47.43;;;10.60;;
21095;SDS011;10706;49.036;12.112;2023-02-15T02:16:49;41.30;;;8.87;;
21095;SDS011;10706;49.036;12.112;2023-02-15T02:19:57;34.73;;;9.97;;
21095;SDS011;10706;49.036;12.112;2023-02-15T02:25:47;35.13;;;10.60;;
21095;SDS011;10706;49.036;12.112;2023-02-15T02:32:12;32.10;;;8.47;;
21095;SDS011;10706;49.036;12.112;2023-02-15T02:38:03;28.83;;;8.43;;
21095;SDS011;10706;49.036;12.112;2023-02-15T02:40:52;43.93;;;10.07;;
21095;SDS011;10706;49.036;12.112;2023-02-15T02:46:42;39.67;;;9.23;;
21095;SDS011;10706;49.036;12.112;2023-02-15T02:49:58;48.50;;;9.67;;
21095;SDS011;10706;49.036;12.112;2023-02-15T02:52:34;48.37;;;10.83;;
21095;SDS011;10706;49.036;12.112;2023-02-15T02:55:16;42.77;;;11.23;;
21095;SDS011;10706;49.036;12.112;2023-02-15T02:58:01;55.97;;;11.67;;
21095;SDS011;10706;49.036;12.112;2023-02-15T03:00:40;35.03;;;10.23;;
21095;SDS011;10706;49.036;12.112;2023-02-15T03:03:35;54.10;;;11.27;;
21095;SDS011;10706;49.036;12.112;2023-02-15T03:06:16;50.80;;;11.87;;
21095;SDS011;10706;49.036;12.112;2023-02-15T03:09:27;61.00;;;10.90;;
21095;SDS011;10706;49.036;12.112;2023-02-15T03:12:06;44.63;;;9.77;;
21095;SDS011;10706;49.036;12.112;2023-02-15T03:14:35;59.00;;;10.87;;
21095;SDS011;10706;49.036;12.112;2023-02-15T03:17:03;54.80;;;10.77;;
21095;SDS011;10706;49.036;12.112;2023-02-15T03:19:31;41.47;;;10.10;;
21095;SDS011;10706;49.036;12.112;2023-02-15T03:22:03;33.80;;;9.40;;
21095;SDS011;10706;49.036;12.112;2023-02-15T03:24:55;31.27;;;8.73;;
21095;SDS011;10706;49.036;12.112;2023-02-15T03:27:37;46.70;;;10.00;;
21095;SDS011;10706;49.036;12.112;2023-02-15T03:30:08;27.73;;;9.63;;
21095;SDS011;10706;49.036;12.112;2023-02-15T03:32:37;34.90;;;8.93;;
21095;SDS011;10706;49.036;12.112;2023-02-15T03:35:04;35.47;;;8.87;;
21095;SDS011;10706;49.036;12.112;2023-02-15T03:37:32;37.30;;;11.43;;
21095;SDS011;10706;49.036;12.112;2023-02-15T03:43:12;42.13;;;11.83;;
21095;SDS011;10706;49.036;12.112;2023-02-15T03:45:56;52.53;;;10.43;;
21095;SDS011;10706;49.036;12.112;2023-02-15T03:48:32;40.43;;;9.07;;
21095;SDS011;10706;49.036;12.112;2023-02-15T03:51:05;35.53;;;9.57;;
21095;SDS011;10706;49.036;12.112;2023-02-15T03:53:55;56.67;;;10.40;;
21095;SDS011;10706;49.036;12.112;2023-02-15T03:56:22;38.03;;;10.20;;
21095;SDS011;10706;49.036;12.112;2023-02-15T03:58:48;37.23;;;10.20;;
21095;SDS011;10706;49.036;12.112;2023-02-15T04:01:39;32.97;;;10.27;;
21095;SDS011;10706;49.036;12.112;2023-02-15T04:07:02;31.33;;;9.17;;
21095;SDS011;10706;49.036;12.112;2023-02-15T04:09:30;34.87;;;10.07;;
21095;SDS011;10706;49.036;12.112;2023-02-15T04:12:14;38.47;;;11.47;;
21095;SDS011;10706;49.036;12.112;2023-02-15T04:14:40;39.87;;;9.87;;
21095;SDS011;10706;49.036;12.112;2023-02-15T04:17:24;37.87;;;9.40;;
21095;SDS011;10706;49.036;12.112;2023-02-15T04:19:49;33.90;;;10.23;;
21095;SDS011;10706;49.036;12.112;2023-02-15T04:22:34;30.40;;;8.80;;
21095;SDS011;10706;49.036;12.112;2023-02-15T04:25:18;29.77;;;8.13;;
21095;SDS011;10706;49.036;12.112;2023-02-15T04:27:46;36.23;;;9.57;;
21095;SDS011;10706;49.036;12.112;2023-02-15T04:30:15;32.77;;;9.47;;
21095;SDS011;10706;49.036;12.112;2023-02-15T04:32:44;43.20;;;10.00;;
21095;SDS011;10706;49.036;12.112;2023-02-15T04:35:10;36.77;;;9.93;;
21095;SDS011;10706;49.036;12.112;2023-02-15T04:37:36;32.10;;;9.87;;
21095;SDS011;10706;49.036;12.112;2023-02-15T04:40:03;35.00;;;10.20;;
21095;SDS011;10706;49.036;12.112;2023-02-15T04:42:30;31.97;;;9.43;;
21095;SDS011;10706;49.036;12.112;2023-02-15T04:44:56;29.57;;;8.67;;
21095;SDS011;10706;49.036;12.112;2023-02-15T04:47:22;29.17;;;9.30;;
21095;SDS011;10706;49.036;12.112;2023-02-15T04:49:48;33.73;;;9.00;;
21095;SDS011;10706;49.036;12.112;2023-02-15T04:52:14;30.10;;;8.60;;
21095;SDS011;10706;49.036;12.112;2023-02-15T04:54:42;29.60;;;9.37;;
21095;SDS011;10706;49.036;12.112;2023-02-15T04:57:07;28.03;;;8.07;;
21095;SDS011;10706;49.036;12.112;2023-02-15T04:59:33;30.83;;;8.27;;
21095;SDS011;10706;49.036;12.112;2023-02-15T05:01:59;27.77;;;8.30;;
21095;SDS011;10706;49.036;12.112;2023-02-15T05:04:24;30.30;;;8.93;;
21095;SDS011;10706;49.036;12.112;2023-02-15T05:06:50;27.33;;;8.93;;
21095;SDS011;10706;49.036;12.112;2023-02-15T05:09:16;24.80;;;9.77;;
21095;SDS011;10706;49.036;12.112;2023-02-15T05:11:42;29.67;;;9.20;;
21095;SDS011;10706;49.036;12.112;2023-02-15T05:14:07;32.60;;;9.57;;
21095;SDS011;10706;49.036;12.112;2023-02-15T05:16:33;27.70;;;8.13;;
21095;SDS011;10706;49.036;12.112;2023-02-15T05:18:59;32.83;;;9.03;;
21095;SDS011;10706;49.036;12.112;2023-02-15T05:21:25;31.60;;;8.93;;
21095;SDS011;10706;49.036;12.112;2023-02-15T05:23:51;28.83;;;9.17;;
21095;SDS011;10706;49.036;12.112;2023-02-15T05:26:18;27.33;;;9.00;;
21095;SDS011;10706;49.036;12.112;2023-02-15T05:29:05;31.37;;;9.97;;
21095;SDS011;10706;49.036;12.112;2023-02-15T05:31:31;30.37;;;9.27;;
21095;SDS011;10706;49.036;12.112;2023-02-15T05:33:57;28.53;;;8.63;;
21095;SDS011;10706;49.036;12.112;2023-02-15T05:36:23;28.20;;;8.53;;
21095;SDS011;10706;49.036;12.112;2023-02-15T05:38:49;27.17;;;9.67;;
21095;SDS011;10706;49.036;12.112;2023-02-15T05:41:15;27.60;;;8.23;;
21095;SDS011;10706;49.036;12.112;2023-02-15T05:43:41;32.93;;;9.60;;
21095;SDS011;10706;49.036;12.112;2023-02-15T05:46:07;31.20;;;9.77;;
21095;SDS011;10706;49.036;12.112;2023-02-15T05:48:33;32.80;;;9.43;;
21095;SDS011;10706;49.036;12.112;2023-02-15T05:51:07;28.43;;;9.93;;
21095;SDS011;10706;49.036;12.112;2023-02-15T05:53:41;31.90;;;10.17;;
21095;SDS011;10706;49.036;12.112;2023-02-15T05:56:08;30.43;;;9.40;;
21095;SDS011;10706;49.036;12.112;2023-02-15T05:58:37;32.53;;;9.10;;
21095;SDS011;10706;49.036;12.112;2023-02-15T06:01:08;32.27;;;10.87;;
21095;SDS011;10706;49.036;12.112;2023-02-15T06:03:40;35.93;;;10.47;;
21095;SDS011;10706;49.036;12.112;2023-02-15T06:06:06;30.63;;;8.57;;
21095;SDS011;10706;49.036;12.112;2023-02-15T06:08:33;33.27;;;10.70;;
21095;SDS011;10706;49.036;12.112;2023-02-15T06:10:59;32.20;;;9.40;;
21095;SDS011;10706;49.036;12.112;2023-02-15T06:13:25;29.03;;;9.37;;
21095;SDS011;10706;49.036;12.112;2023-02-15T06:15:51;31.43;;;9.77;;
21095;SDS011;10706;49.036;12.112;2023-02-15T06:18:17;32.17;;;8.80;;
21095;SDS011;10706;49.036;12.112;2023-02-15T06:20:45;34.50;;;8.93;;
21095;SDS011;10706;49.036;12.112;2023-02-15T06:23:11;29.90;;;9.43;;
21095;SDS011;10706;49.036;12.112;2023-02-15T06:25:37;29.27;;;9.47;;
21095;SDS011;10706;49.036;12.112;2023-02-15T06:28:03;31.03;;;10.27;;
21095;SDS011;10706;49.036;12.112;2023-02-15T06:30:29;35.43;;;9.67;;
21095;SDS011;10706;49.036;12.112;2023-02-15T06:32:55;36.27;;;10.53;;
21095;SDS011;10706;49.036;12.112;2023-02-15T06:35:21;33.10;;;9.47;;
21095;SDS011;10706;49.036;12.112;2023-02-15T06:37:46;26.30;;;8.67;;
21095;SDS011;10706;49.036;12.112;2023-02-15T06:40:13;37.00;;;10.63;;
21095;SDS011;10706;49.036;12.112;2023-02-15T06:42:39;26.77;;;9.27;;
21095;SDS011;10706;49.036;12.112;2023-02-15T06:45:06;30.97;;;8.27;;
21095;SDS011;10706;49.036;12.112;2023-02-15T06:47:32;26.13;;;8.37;;
21095;SDS011;10706;49.036;12.112;2023-02-15T06:49:57;27.27;;;7.97;;
21095;SDS011;10706;49.036;12.112;2023-02-15T06:52:23;32.17;;;8.77;;
21095;SDS011;10706;49.036;12.112;2023-02-15T06:54:50;23.37;;;7.53;;
21095;SDS011;10706;49.036;12.112;2023-02-15T06:57:16;26.70;;;9.50;;
21095;SDS011;10706;49.036;12.112;2023-02-15T06:59:42;28.37;;;8.40;;
21095;SDS011;10706;49.036;12.112;2023-02-15T07:02:08;28.07;;;9.33;;
21095;SDS011;10706;49.036;12.112;2023-02-15T07:04:36;27.47;;;9.67;;
21095;SDS011;10706;49.036;12.112;2023-02-15T07:07:02;26.37;;;9.30;;
21095;SDS011;10706;49.036;12.112;2023-02-15T07:09:28;29.30;;;8.60;;
21095;SDS011;10706;49.036;12.112;2023-02-15T07:11:54;34.27;;;8.40;;
21095;SDS011;10706;49.036;12.112;2023-02-15T07:14:38;34.60;;;9.57;;
21095;SDS011;10706;49.036;12.112;2023-02-15T07:17:05;30.30;;;8.03;;
21095;SDS011;10706;49.036;12.112;2023-02-15T07:19:31;33.60;;;8.67;;
21095;SDS011;10706;49.036;12.112;2023-02-15T07:21:57;37.13;;;8.97;;
21095;SDS011;10706;49.036;12.112;2023-02-15T07:24:23;27.00;;;9.50;;
21095;SDS011;10706;49.036;12.112;2023-02-15T07:26:48;29.70;;;8.90;;
21095;SDS011;10706;49.036;12.112;2023-02-15T07:29:14;31.53;;;10.00;;
21095;SDS011;10706;49.036;12.112;2023-02-15T07:31:40;30.57;;;10.10;;
21095;SDS011;10706;49.036;12.112;2023-02-15T07:34:10;30.93;;;9.03;;
21095;SDS011;10706;49.036;12.112;2023-02-15T07:36:35;31.13;;;10.77;;
21095;SDS011;10706;49.036;12.112;2023-02-15T07:39:01;28.77;;;9.00;;
21095;SDS011;10706;49.036;12.112;2023-02-15T07:41:27;38.63;;;10.80;;
21095;SDS011;10706;49.036;12.112;2023-02-15T07:43:53;37.67;;;10.17;;
21095;SDS011;10706;49.036;12.112;2023-02-15T07:46:19;36.33;;;9.77;;
21095;SDS011;10706;49.036;12.112;2023-02-15T07:48:45;38.63;;;11.10;;
21095;SDS011;10706;49.036;12.112;2023-02-15T07:51:12;35.03;;;10.67;;
21095;SDS011;10706;49.036;12.112;2023-02-15T07:53:39;36.07;;;10.00;;
21095;SDS011;10706;49.036;12.112;2023-02-15T07:56:09;36.63;;;10.53;;
21095;SDS011;10706;49.036;12.112;2023-02-15T07:58:37;32.90;;;10.30;;
21095;SDS011;10706;49.036;12.112;2023-02-15T08:01:15;36.20;;;11.10;;
21095;SDS011;10706;49.036;12.112;2023-02-15T08:03:44;35.90;;;10.83;;
21095;SDS011;10706;49.036;12.112;2023-02-15T08:06:09;28.33;;;10.13;;
21095;SDS011;10706;49.036;12.112;2023-02-15T08:08:37;33.17;;;9.50;;
21095;SDS011;10706;49.036;12.112;2023-02-15T08:14:00;35.13;;;9.77;;
21095;SDS011;10706;49.036;12.112;2023-02-15T08:16:36;32.53;;;10.37;;
21095;SDS011;10706;49.036;12.112;2023-02-15T08:19:17;30.97;;;10.57;;
21095;SDS011;10706;49.036;12.112;2023-02-15T08:21:51;33.10;;;10.70;;
21095;SDS011;10706;49.036;12.112;2023-02-15T08:24:20;33.87;;;11.10;;
21095;SDS011;10706;49.036;12.112;2023-02-15T08:26:48;38.13;;;11.73;;
21095;SDS011;10706;49.036;12.112;2023-02-15T08:29:15;32.67;;;10.07;;
21095;SDS011;10706;49.036;12.112;2023-02-15T08:31:44;36.63;;;10.97;;
21095;SDS011;10706;49.036;12.112;2023-02-15T08:34:13;39.13;;;11.57;;
21095;SDS011;10706;49.036;12.112;2023-02-15T08:36:42;32.23;;;10.50;;
21095;SDS011;10706;49.036;12.112;2023-02-15T08:39:09;34.60;;;11.33;;
21095;SDS011;10706;49.036;12.112;2023-02-15T08:41:37;31.57;;;10.37;;
21095;SDS011;10706;49.036;12.112;2023-02-15T08:44:05;30.00;;;10.13;;
21095;SDS011;10706;49.036;12.112;2023-02-15T08:46:34;34.57;;;11.87;;
21095;SDS011;10706;49.036;12.112;2023-02-15T08:49:02;36.00;;;11.37;;
21095;SDS011;10706;49.036;12.112;2023-02-15T08:51:30;48.93;;;12.97;;
21095;SDS011;10706;49.036;12.112;2023-02-15T08:54:00;38.30;;;11.13;;
21095;SDS011;10706;49.036;12.112;2023-02-15T08:56:32;41.70;;;10.90;;
21095;SDS011;10706;49.036;12.112;2023-02-15T08:59:00;35.93;;;11.60;;
21095;SDS011;10706;49.036;12.112;2023-02-15T09:01:27;29.07;;;9.70;;
21095;SDS011;10706;49.036;12.112;2023-02-15T09:03:59;33.47;;;11.23;;
21095;SDS011;10706;49.036;12.112;2023-02-15T09:06:29;34.23;;;11.83;;
21095;SDS011;10706;49.036;12.112;2023-02-15T09:08:55;39.20;;;12.87;;
21095;SDS011;10706;49.036;12.112;2023-02-15T09:11:22;39.07;;;13.67;;
21095;SDS011;10706;49.036;12.112;2023-02-15T09:13:53;33.60;;;11.33;;
21095;SDS011;10706;49.036;12.112;2023-02-15T09:16:24;39.93;;;11.27;;
21095;SDS011;10706;49.036;12.112;2023-02-15T09:18:52;39.77;;;12.33;;
21095;SDS011;10706;49.036;12.112;2023-02-15T09:21:19;41.47;;;12.23;;
21095;SDS011;10706;49.036;12.112;2023-02-15T09:23:48;36.47;;;11.70;;
21095;SDS011;10706;49.036;12.112;2023-02-15T09:26:17;33.20;;;11.83;;
21095;SDS011;10706;49.036;12.112;2023-02-15T09:28:45;32.00;;;11.53;;
21095;SDS011;10706;49.036;12.112;2023-02-15T09:31:20;39.30;;;11.73;;
21095;SDS011;10706;49.036;12.112;2023-02-15T09:33:51;36.17;;;11.83;;
21095;SDS011;10706;49.036;12.112;2023-02-15T09:38:52;30.33;;;10.93;;
21095;SDS011;10706;49.036;12.112;2023-02-15T09:48:21;33.63;;;10.87;;
21095;SDS011;10706;49.036;12.112;2023-02-15T09:56:31;32.50;;;12.07;;
21095;SDS011;10706;49.036;12.112;2023-02-15T10:05:14;31.13;;;11.07;;
21095;SDS011;10706;49.036;12.112;2023-02-15T10:08:07;32.80;;;12.00;;
21095;SDS011;10706;49.036;12.112;2023-02-15T10:11:39;32.33;;;11.83;;
21095;SDS011;10706;49.036;12.112;2023-02-15T10:14:22;31.93;;;11.23;;
21095;SDS011;10706;49.036;12.112;2023-02-15T10:17:41;28.67;;;11.53;;
21095;SDS011;10706;49.036;12.112;2023-02-15T10:20:59;25.97;;;10.33;;
21095;SDS011;10706;49.036;12.112;2023-02-15T10:26:20;31.33;;;11.10;;
21095;SDS011;10706;49.036;12.112;2023-02-15T10:34:54;36.77;;;11.00;;
21095;SDS011;10706;49.036;12.112;2023-02-15T10:37:39;35.30;;;10.70;;
21095;SDS011;10706;49.036;12.112;2023-02-15T10:40:15;29.47;;;10.50;;
21095;SDS011;10706;49.036;12.112;2023-02-15T10:49:20;29.37;;;10.57;;
21095;SDS011;10706;49.036;12.112;2023-02-15T10:51:55;28.17;;;11.77;;
21095;SDS011;10706;49.036;12.112;2023-02-15T11:03:23;35.00;;;12.60;;
21095;SDS011;10706;49.036;12.112;2023-02-15T11:06:03;29.50;;;10.90;;
21095;SDS011;10706;49.036;12.112;2023-02-15T11:08:39;32.17;;;11.83;;
21095;SDS011;10706;49.036;12.112;2023-02-15T11:11:10;33.43;;;11.47;;
21095;SDS011;10706;49.036;12.112;2023-02-15T11:13:51;34.57;;;11.90;;
21095;SDS011;10706;49.036;12.112;2023-02-15T11:16:31;30.77;;;10.40;;
21095;SDS011;10706;49.036;12.112;2023-02-15T11:19:05;33.33;;;12.43;;
21095;SDS011;10706;49.036;12.112;2023-02-15T11:21:48;26.37;;;11.70;;
21095;SDS011;10706;49.036;12.112;2023-02-15T11:24:19;27.30;;;10.97;;
21095;SDS011;10706;49.036;12.112;2023-02-15T11:32:39;29.73;;;10.90;;
21095;SDS011;10706;49.036;12.112;2023-02-15T11:37:37;27.33;;;10.37;;
21095;SDS011;10706;49.036;12.112;2023-02-15T11:40:32;30.67;;;11.50;;
21095;SDS011;10706;49.036;12.112;2023-02-15T11:43:16;32.43;;;10.87;;
21095;SDS011;10706;49.036;12.112;2023-02-15T11:46:05;27.63;;;9.73;;
21095;SDS011;10706;49.036;12.112;2023-02-15T11:48:33;29.67;;;11.80;;
21095;SDS011;10706;49.036;12.112;2023-02-15T11:50:59;31.07;;;11.43;;
21095;SDS011;10706;49.036;12.112;2023-02-15T11:53:27;28.33;;;11.40;;
21095;SDS011;10706;49.036;12.112;2023-02-15T11:55:57;28.03;;;11.03;;
21095;SDS011;10706;49.036;12.112;2023-02-15T12:04:06;33.67;;;12.33;;
21095;SDS011;10706;49.036;12.112;2023-02-15T12:06:41;33.07;;;11.70;;
21095;SDS011;10706;49.036;12.112;2023-02-15T12:12:25;28.27;;;11.70;;
21095;SDS011;10706;49.036;12.112;2023-02-15T12:14:57;28.93;;;10.67;;
21095;SDS011;10706;49.036;12.112;2023-02-15T12:17:27;31.43;;;11.20;;
21095;SDS011;10706;49.036;12.112;2023-02-15T12:22:45;32.47;;;12.73;;
21095;SDS011;10706;49.036;12.112;2023-02-15T12:28:22;32.90;;;11.67;;
21095;SDS011;10706;49.036;12.112;2023-02-15T12:31:20;29.00;;;11.70;;
21095;SDS011;10706;49.036;12.112;2023-02-15T12:33:52;34.07;;;11.87;;
21095;SDS011;10706;49.036;12.112;2023-02-15T12:39:05;34.60;;;12.73;;
21095;SDS011;10706;49.036;12.112;2023-02-15T12:46:59;35.73;;;13.53;;
21095;SDS011;10706;49.036;12.112;2023-02-15T12:50:03;32.07;;;12.83;;
21095;SDS011;10706;49.036;12.112;2023-02-15T12:52:44;32.43;;;13.27;;
21095;SDS011;10706;49.036;12.112;2023-02-15T12:58:04;31.77;;;12.93;;
21095;SDS011;10706;49.036;12.112;2023-02-15T13:01:37;37.93;;;13.00;;
21095;SDS011;10706;49.036;12.112;2023-02-15T13:06:30;34.43;;;13.77;;
21095;SDS011;10706;49.036;12.112;2023-02-15T13:09:16;39.77;;;13.33;;
21095;SDS011;10706;49.036;12.112;2023-02-15T13:11:45;31.70;;;12.30;;
21095;SDS011;10706;49.036;12.112;2023-02-15T13:14:18;38.03;;;15.33;;
21095;SDS011;10706;49.036;12.112;2023-02-15T13:17:00;33.67;;;12.87;;
21095;SDS011;10706;49.036;12.112;2023-02-15T13:22:06;38.33;;;13.93;;
21095;SDS011;10706;49.036;12.112;2023-02-15T13:24:41;37.17;;;14.07;;
21095;SDS011;10706;49.036;12.112;2023-02-15T13:27:19;36.47;;;13.40;;
21095;SDS011;10706;49.036;12.112;2023-02-15T13:29:51;34.13;;;14.10;;
21095;SDS011;10706;49.036;12.112;2023-02-15T13:32:36;34.30;;;12.67;;
21095;SDS011;10706;49.036;12.112;2023-02-15T13:35:09;37.57;;;14.57;;
21095;SDS011;10706;49.036;12.112;2023-02-15T13:37:54;36.50;;;12.90;;
21095;SDS011;10706;49.036;12.112;2023-02-15T13:40:55;38.93;;;13.50;;
21095;SDS011;10706;49.036;12.112;2023-02-15T13:52:19;36.10;;;13.33;;
21095;SDS011;10706;49.036;12.112;2023-02-15T13:57:56;35.77;;;12.73;;
21095;SDS011;10706;49.036;12.112;2023-02-15T14:04:09;36.93;;;13.77;;
21095;SDS011;10706;49.036;12.112;2023-02-15T14:06:53;31.03;;;11.53;;
21095;SDS011;10706;49.036;12.112;2023-02-15T14:18:44;38.37;;;13.90;;
21095;SDS011;10706;49.036;12.112;2023-02-15T14:29:46;37.40;;;13.07;;
21095;SDS011;10706;49.036;12.112;2023-02-15T14:32:31;38.73;;;15.50;;
21095;SDS011;10706;49.036;12.112;2023-02-15T14:35:17;38.47;;;14.00;;
21095;SDS011;10706;49.036;12.112;2023-02-15T14:54:24;37.17;;;13.00;;
21095;SDS011;10706;49.036;12.112;2023-02-15T14:59:27;32.27;;;12.40;;
21095;SDS011;10706;49.036;12.112;2023-02-15T15:02:15;35.97;;;14.17;;
21095;SDS011;10706;49.036;12.112;2023-02-15T15:04:58;31.03;;;12.73;;
21095;SDS011;10706;49.036;12.112;2023-02-15T15:20:43;36.07;;;13.07;;
21095;SDS011;10706;49.036;12.112;2023-02-15T15:25:49;30.97;;;12.57;;
21095;SDS011;10706;49.036;12.112;2023-02-15T15:49:39;34.30;;;13.60;;
21095;SDS011;10706;49.036;12.112;2023-02-15T15:52:18;40.93;;;15.63;;
21095;SDS011;10706;49.036;12.112;2023-02-15T15:54:46;37.33;;;14.57;;
21095;SDS011;10706;49.036;12.112;2023-02-15T15:59:54;37.80;;;15.53;;
21095;SDS011;10706;49.036;12.112;2023-02-15T16:02:24;39.23;;;15.27;;
21095;SDS011;10706;49.036;12.112;2023-02-15T16:04:51;36.73;;;15.30;;
21095;SDS011;10706;49.036;12.112;2023-02-15T16:12:31;39.53;;;15.70;;
21095;SDS011;10706;49.036;12.112;2023-02-15T16:15:01;39.60;;;15.70;;
21095;SDS011;10706;49.036;12.112;2023-02-15T16:17:57;37.10;;;13.30;;
21095;SDS011;10706;49.036;12.112;2023-02-15T16:20:33;37.57;;;14.73;;
21095;SDS011;10706;49.036;12.112;2023-02-15T16:29:01;39.33;;;14.33;;
21095;SDS011;10706;49.036;12.112;2023-02-15T16:31:27;37.63;;;14.33;;
21095;SDS011;10706;49.036;12.112;2023-02-15T16:33:53;35.20;;;14.50;;
21095;SDS011;10706;49.036;12.112;2023-02-15T16:36:21;44.20;;;15.37;;
21095;SDS011;10706;49.036;12.112;2023-02-15T16:41:32;36.40;;;12.13;;
21095;SDS011;10706;49.036;12.112;2023-02-15T16:44:00;38.20;;;14.77;;
21095;SDS011;10706;49.036;12.112;2023-02-15T16:46:40;39.17;;;13.80;;
21095;SDS011;10706;49.036;12.112;2023-02-15T16:49:22;47.20;;;14.87;;
21095;SDS011;10706;49.036;12.112;2023-02-15T16:51:58;34.73;;;12.30;;
21095;SDS011;10706;49.036;12.112;2023-02-15T16:54:27;44.10;;;13.97;;
21095;SDS011;10706;49.036;12.112;2023-02-15T16:56:56;38.57;;;14.13;;
21095;SDS011;10706;49.036;12.112;2023-02-15T16:59:31;43.93;;;14.33;;
21095;SDS011;10706;49.036;12.112;2023-02-15T17:02:12;38.37;;;15.00;;
21095;SDS011;10706;49.036;12.112;2023-02-15T17:04:42;32.97;;;12.90;;
21095;SDS011;10706;49.036;12.112;2023-02-15T17:07:15;42.17;;;15.03;;
21095;SDS011;10706;49.036;12.112;2023-02-15T17:12:41;43.83;;;15.77;;
21095;SDS011;10706;49.036;12.112;2023-02-15T17:17:58;46.77;;;15.53;;
21095;SDS011;10706;49.036;12.112;2023-02-15T17:20:43;42.90;;;15.30;;
21095;SDS011;10706;49.036;12.112;2023-02-15T17:23:25;45.77;;;14.93;;
21095;SDS011;10706;49.036;12.112;2023-02-15T17:25:53;44.27;;;15.73;;
21095;SDS011;10706;49.036;12.112;2023-02-15T17:28:27;42.27;;;13.83;;
21095;SDS011;10706;49.036;12.112;2023-02-15T17:30:55;43.73;;;15.73;;
21095;SDS011;10706;49.036;12.112;2023-02-15T17:33:24;37.90;;;14.27;;
21095;SDS011;10706;49.036;12.112;2023-02-15T17:39:21;42.63;;;14.70;;
21095;SDS011;10706;49.036;12.112;2023-02-15T17:41:47;40.33;;;14.63;;
21095;SDS011;10706;49.036;12.112;2023-02-15T17:44:12;46.23;;;16.50;;
21095;SDS011;10706;49.036;12.112;2023-02-15T17:46:40;46.93;;;15.73;;
21095;SDS011;10706;49.036;12.112;2023-02-15T17:49:10;44.30;;;15.60;;
21095;SDS011;10706;49.036;12.112;2023-02-15T17:51:46;44.17;;;15.93;;
21095;SDS011;10706;49.036;12.112;2023-02-15T17:54:12;43.13;;;15.27;;
21095;SDS011;10706;49.036;12.112;2023-02-15T17:56:56;44.70;;;16.90;;
21095;SDS011;10706;49.036;12.112;2023-02-15T17:59:27;42.00;;;15.43;;
21095;SDS011;10706;49.036;12.112;2023-02-15T18:01:52;45.00;;;15.00;;
21095;SDS011;10706;49.036;12.112;2023-02-15T18:04:37;46.03;;;15.70;;
21095;SDS011;10706;49.036;12.112;2023-02-15T18:07:21;37.40;;;13.23;;
21095;SDS011;10706;49.036;12.112;2023-02-15T18:10:12;52.67;;;17.43;;
21095;SDS011;10706;49.036;12.112;2023-02-15T18:12:59;41.80;;;16.43;;
21095;SDS011;10706;49.036;12.112;2023-02-15T18:15:25;43.10;;;16.63;;
21095;SDS011;10706;49.036;12.112;2023-02-15T18:17:52;46.40;;;15.83;;
21095;SDS011;10706;49.036;12.112;2023-02-15T18:20:20;44.17;;;15.90;;
21095;SDS011;10706;49.036;12.112;2023-02-15T18:22:50;43.67;;;16.13;;
21095;SDS011;10706;49.036;12.112;2023-02-15T18:25:17;48.17;;;16.23;;
21095;SDS011;10706;49.036;12.112;2023-02-15T18:27:45;48.30;;;17.10;;